createdAt,value
2022-10-30T00:01:00.186Z,14.83
2022-10-30T00:03:28.396Z,15.11
2022-10-30T00:05:56.309Z,15.16
2022-10-30T00:08:26.059Z,15.25
2022-10-30T00:10:54.498Z,14.75
2022-10-30T00:13:22.918Z,15.01
2022-10-30T00:15:52.557Z,15.50
2022-10-30T00:18:21.413Z,15.62
2022-10-30T00:20:49.858Z,14.82
2022-10-30T00:23:17.788Z,14.53
2022-10-30T00:25:46.067Z,14.49
2022-10-30T00:28:13.999Z,14.45
2022-10-30T00:30:42.088Z,14.57
2022-10-30T00:33:10.339Z,14.36
2022-10-30T00:35:38.225Z,14.25
2022-10-30T00:38:06.349Z,14.57
2022-10-30T00:40:34.873Z,14.17
2022-10-30T00:43:02.795Z,14.72
2022-10-30T00:45:30.658Z,14.27
2022-10-30T00:48:02.404Z,14.30
2022-10-30T00:50:36.603Z,14.60
2022-10-30T00:53:12.080Z,14.41
2022-10-30T00:55:51.009Z,14.53
2022-10-30T00:58:28.531Z,14.66
2022-10-30T01:00:58.594Z,15.08
2022-10-30T01:03:27.889Z,15.68
2022-10-30T01:05:59.238Z,15.28
2022-10-30T01:08:27.960Z,15.25
2022-10-30T01:10:58.170Z,14.66
2022-10-30T01:13:26.908Z,15.27
2022-10-30T01:15:58.197Z,14.98
2022-10-30T01:18:44.317Z,14.69
2022-10-30T01:21:33.815Z,15.35
2022-10-30T01:24:19.088Z,15.05
2022-10-30T01:26:57.708Z,14.53
2022-10-30T01:29:25.637Z,14.43
2022-10-30T01:32:15.600Z,14.43
2022-10-30T01:34:44.739Z,14.68
2022-10-30T01:37:28.418Z,14.38
2022-10-30T01:39:56.328Z,14.50
2022-10-30T01:42:47.687Z,14.18
2022-10-30T01:45:21.671Z,13.86
2022-10-30T01:48:01.834Z,14.01
2022-10-30T01:50:41.187Z,14.07
2022-10-30T01:53:22.299Z,14.78
2022-10-30T01:55:50.228Z,15.00
2022-10-30T01:58:27.070Z,15.15
2022-10-30T02:00:57.766Z,14.92
2022-10-30T02:03:27.467Z,15.10
2022-10-30T02:05:56.806Z,15.01
2022-10-30T02:08:25.388Z,14.48
2022-10-30T02:10:55.266Z,14.35
2022-10-30T02:13:30.566Z,14.47
2022-10-30T02:15:59.404Z,14.10
2022-10-30T02:18:27.346Z,14.38
2022-10-30T02:20:55.659Z,14.81
2022-10-30T02:23:23.616Z,14.64
2022-10-30T02:25:51.865Z,14.70
2022-10-30T02:28:19.817Z,14.53
2022-10-30T02:30:47.869Z,14.18
2022-10-30T02:35:49.028Z,14.88
2022-10-30T02:38:17.328Z,14.44
2022-10-30T02:40:45.897Z,15.33
2022-10-30T02:43:13.861Z,14.55
2022-10-30T02:45:42.156Z,14.63
2022-10-30T02:50:43.208Z,14.69
2022-10-30T02:53:11.365Z,14.59
2022-10-30T02:55:39.247Z,14.36
2022-10-30T02:58:07.527Z,14.51
2022-10-30T03:00:35.421Z,14.29
2022-10-30T03:03:03.300Z,14.71
2022-10-30T03:05:31.531Z,14.58
2022-10-30T03:07:59.920Z,14.55
2022-10-30T03:10:28.188Z,14.77
2022-10-30T03:12:56.448Z,14.65
2022-10-30T03:15:24.365Z,15.27
2022-10-30T03:17:52.977Z,15.30
2022-10-30T03:20:21.571Z,14.63
2022-10-30T03:22:49.491Z,14.92
2022-10-30T03:25:24.023Z,15.03
2022-10-30T03:27:54.433Z,14.99
2022-10-30T03:30:22.876Z,15.20
2022-10-30T03:32:50.697Z,15.25
2022-10-30T03:35:19.026Z,15.22
2022-10-30T03:37:46.907Z,15.23
2022-10-30T03:40:14.879Z,15.10
2022-10-30T03:42:43.168Z,15.23
2022-10-30T03:45:11.169Z,14.99
2022-10-30T03:47:40.869Z,15.18
2022-10-30T03:50:09.758Z,14.73
2022-10-30T03:52:37.620Z,15.00
2022-10-30T03:55:06.012Z,15.17
2022-10-30T03:57:37.490Z,14.49
2022-10-30T04:00:07.042Z,14.95
2022-10-30T04:02:52.219Z,14.98
2022-10-30T04:05:22.229Z,14.42
2022-10-30T04:07:59.080Z,14.81
2022-10-30T04:10:27.680Z,14.43
2022-10-30T04:13:03.357Z,14.84
2022-10-30T04:15:32.088Z,14.65
2022-10-30T04:18:00.674Z,14.07
2022-10-30T04:20:28.960Z,14.81
2022-10-30T04:22:59.497Z,14.82
2022-10-30T04:25:29.388Z,14.74
2022-10-30T04:27:57.916Z,14.27
2022-10-30T04:30:27.439Z,14.22
2022-10-30T04:32:56.604Z,14.55
2022-10-30T04:35:28.526Z,14.50
2022-10-30T04:38:05.258Z,14.16
2022-10-30T04:40:35.520Z,14.00
2022-10-30T04:43:03.667Z,14.47
2022-10-30T04:45:32.087Z,14.57
2022-10-30T04:48:02.254Z,15.01
2022-10-30T04:50:31.955Z,14.28
2022-10-30T04:53:05.197Z,14.46
2022-10-30T04:55:33.324Z,14.60
2022-10-30T04:58:04.915Z,14.42
2022-10-30T05:00:33.287Z,13.88
2022-10-30T05:03:02.702Z,14.05
2022-10-30T05:05:31.500Z,14.23
2022-10-30T05:07:59.953Z,14.04
2022-10-30T05:10:29.829Z,14.20
2022-10-30T05:13:00.344Z,14.37
2022-10-30T05:15:29.169Z,14.26
2022-10-30T05:17:57.209Z,14.02
2022-10-30T05:20:25.309Z,14.22
2022-10-30T05:22:58.259Z,14.66
2022-10-30T05:25:27.876Z,14.50
2022-10-30T05:28:03.470Z,14.23
2022-10-30T05:30:33.656Z,14.33
2022-10-30T05:33:03.968Z,14.06
2022-10-30T05:35:33.738Z,14.04
2022-10-30T05:38:06.911Z,14.17
2022-10-30T05:40:35.471Z,14.13
2022-10-30T05:43:04.677Z,14.52
2022-10-30T05:45:33.204Z,14.84
2022-10-30T05:48:05.927Z,14.39
2022-10-30T05:50:34.848Z,14.06
2022-10-30T05:53:10.731Z,14.26
2022-10-30T05:55:39.570Z,14.46
2022-10-30T05:58:08.149Z,14.16
2022-10-30T06:00:36.818Z,14.00
2022-10-30T06:03:11.048Z,14.09
2022-10-30T06:05:40.663Z,13.82
2022-10-30T06:08:09.182Z,13.96
2022-10-30T06:10:37.973Z,14.23
2022-10-30T06:13:07.469Z,14.08
2022-10-30T06:15:36.454Z,13.87
2022-10-30T06:18:04.488Z,14.03
2022-10-30T06:20:32.719Z,13.98
2022-10-30T06:23:07.968Z,14.18
2022-10-30T06:25:40.978Z,14.62
2022-10-30T06:28:11.231Z,13.62
2022-10-30T06:30:39.619Z,14.18
2022-10-30T06:33:08.031Z,13.77
2022-10-30T06:35:36.660Z,14.07
2022-10-30T06:38:05.298Z,14.64
2022-10-30T06:40:33.701Z,15.00
2022-10-30T06:43:02.792Z,14.24
2022-10-30T06:45:30.969Z,14.59
2022-10-30T06:48:00.500Z,14.98
2022-10-30T06:50:30.542Z,14.81
2022-10-30T06:52:58.430Z,14.67
2022-10-30T06:55:26.391Z,15.06
2022-10-30T06:57:58.954Z,15.01
2022-10-30T07:00:28.361Z,14.37
2022-10-30T07:03:02.722Z,14.74
2022-10-30T07:05:31.349Z,14.87
2022-10-30T07:08:00.073Z,14.74
2022-10-30T07:10:28.042Z,15.10
2022-10-30T07:12:59.456Z,15.04
2022-10-30T07:15:30.807Z,15.06
2022-10-30T07:18:04.313Z,14.27
2022-10-30T07:20:35.066Z,15.13
2022-10-30T07:23:03.836Z,14.51
2022-10-30T07:25:32.480Z,14.59
2022-10-30T07:28:02.318Z,14.79
2022-10-30T07:30:30.953Z,14.33
2022-10-30T07:33:03.535Z,14.65
2022-10-30T07:35:33.126Z,15.41
2022-10-30T07:38:08.090Z,14.63
2022-10-30T07:40:37.268Z,14.45
2022-10-30T07:43:06.997Z,14.92
2022-10-30T07:45:37.079Z,14.77
2022-10-30T07:48:08.049Z,15.07
2022-10-30T07:50:36.051Z,15.15
2022-10-30T07:53:03.958Z,15.25
2022-10-30T07:55:33.220Z,15.46
2022-10-30T07:58:03.229Z,15.02
2022-10-30T08:00:32.110Z,14.62
2022-10-30T08:03:00.987Z,14.60
2022-10-30T08:05:30.412Z,15.46
2022-10-30T08:07:59.728Z,15.09
2022-10-30T08:10:28.766Z,14.81
2022-10-30T08:12:56.681Z,14.82
2022-10-30T08:15:24.742Z,15.53
2022-10-30T08:17:53.032Z,15.10
2022-10-30T08:20:23.719Z,14.63
2022-10-30T08:22:56.599Z,14.82
2022-10-30T08:25:28.018Z,14.98
2022-10-30T08:28:01.368Z,15.24
2022-10-30T08:30:34.547Z,15.08
2022-10-30T08:33:08.561Z,14.95
2022-10-30T08:35:53.918Z,15.73
2022-10-30T08:38:22.079Z,15.33
2022-10-30T08:40:50.541Z,15.28
2022-10-30T08:43:18.932Z,15.41
2022-10-30T08:45:47.240Z,15.14
2022-10-30T08:48:16.612Z,15.06
2022-10-30T08:50:45.200Z,15.48
2022-10-30T08:53:15.150Z,15.04
2022-10-30T08:55:45.159Z,14.48
2022-10-30T08:58:13.791Z,15.02
2022-10-30T09:00:42.286Z,15.90
2022-10-30T09:03:13.151Z,15.86
2022-10-30T09:05:43.209Z,15.20
2022-10-30T09:08:12.930Z,15.63
2022-10-30T09:10:45.358Z,15.80
2022-10-30T09:13:13.778Z,15.65
2022-10-30T09:15:41.819Z,15.29
2022-10-30T09:18:10.049Z,15.06
2022-10-30T09:20:38.767Z,15.24
2022-10-30T09:23:06.719Z,15.13
2022-10-30T09:25:35.138Z,15.81
2022-10-30T09:28:04.129Z,15.67
2022-10-30T09:30:33.629Z,15.48
2022-10-30T09:33:03.321Z,15.72
2022-10-30T09:35:33.319Z,15.77
2022-10-30T09:38:01.697Z,15.76
2022-10-30T09:40:58.044Z,16.10
2022-10-30T09:43:35.258Z,16.09
2022-10-30T09:46:24.712Z,14.94
2022-10-30T09:48:58.785Z,15.77
2022-10-30T09:51:54.132Z,15.41
2022-10-30T09:55:07.059Z,16.07
2022-10-30T09:57:41.271Z,15.95
2022-10-30T10:00:20.142Z,15.85
2022-10-30T10:03:27.171Z,15.87
2022-10-30T10:05:59.537Z,15.14
2022-10-30T10:08:53.387Z,16.33
2022-10-30T10:11:27.752Z,16.57
2022-10-30T10:14:09.733Z,16.77
2022-10-30T10:16:39.979Z,16.18
2022-10-30T10:19:22.937Z,16.47
2022-10-30T10:21:57.937Z,16.84
2022-10-30T10:24:31.437Z,16.36
2022-10-30T10:27:23.670Z,16.48
2022-10-30T10:30:03.737Z,16.41
2022-10-30T10:33:08.477Z,15.99
2022-10-30T10:36:05.309Z,16.30
2022-10-30T10:38:39.158Z,16.50
2022-10-30T10:41:23.028Z,17.02
2022-10-30T10:44:03.225Z,16.54
2022-10-30T10:46:54.149Z,16.56
2022-10-30T10:49:40.777Z,16.18
2022-10-30T10:52:16.386Z,16.78
2022-10-30T10:54:46.729Z,16.27
2022-10-30T10:57:26.190Z,16.77
2022-10-30T10:59:58.490Z,17.08
2022-10-30T11:03:01.515Z,17.40
2022-10-30T11:05:47.458Z,17.02
2022-10-30T11:08:25.379Z,17.10
2022-10-30T11:11:04.749Z,17.04
2022-10-30T11:13:40.172Z,17.20
2022-10-30T11:16:28.320Z,17.49
2022-10-30T11:19:01.308Z,17.17
2022-10-30T11:21:32.727Z,16.94
2022-10-30T11:24:01.110Z,17.24
2022-10-30T11:26:32.266Z,16.94
2022-10-30T11:29:20.448Z,17.52
2022-10-30T11:32:01.951Z,17.49
2022-10-30T11:34:35.218Z,17.59
2022-10-30T11:37:04.167Z,16.88
2022-10-30T11:39:34.400Z,16.58
2022-10-30T11:42:15.040Z,16.70
2022-10-30T11:44:46.168Z,17.05
2022-10-30T11:47:15.891Z,17.47
2022-10-30T11:49:51.172Z,16.77
2022-10-30T11:52:21.661Z,17.28
2022-10-30T11:54:56.490Z,16.90
2022-10-30T11:57:34.113Z,16.71
2022-10-30T12:00:05.720Z,16.58
2022-10-30T12:02:44.881Z,16.64
2022-10-30T12:05:28.205Z,17.10
2022-10-30T12:08:17.591Z,16.27
2022-10-30T12:10:59.054Z,16.36
2022-10-30T12:13:27.550Z,16.57
2022-10-30T12:16:08.492Z,16.65
2022-10-30T12:18:36.932Z,16.65
2022-10-30T12:21:05.550Z,17.06
2022-10-30T12:23:33.910Z,16.63
2022-10-30T12:26:08.751Z,16.87
2022-10-30T12:28:37.033Z,17.39
2022-10-30T12:31:33.860Z,17.62
2022-10-30T12:36:48.281Z,16.75
2022-10-30T12:39:29.770Z,17.17
2022-10-30T12:42:04.638Z,16.69
2022-10-30T12:44:37.403Z,16.93
2022-10-30T12:47:28.296Z,17.05
2022-10-30T12:53:22.080Z,17.53
2022-10-30T12:55:51.700Z,17.68
2022-10-30T12:58:37.690Z,17.70
2022-10-30T13:01:16.177Z,17.51
2022-10-30T13:03:53.478Z,16.78
2022-10-30T13:06:26.558Z,16.78
2022-10-30T13:09:00.553Z,17.24
2022-10-30T13:11:39.933Z,17.33
2022-10-30T13:14:14.656Z,17.63
2022-10-30T13:16:42.882Z,17.37
2022-10-30T13:19:12.999Z,16.81
2022-10-30T13:24:18.642Z,17.07
2022-10-30T13:26:52.419Z,16.86
2022-10-30T13:29:39.229Z,17.13
2022-10-30T13:32:39.798Z,17.51
2022-10-30T13:35:18.228Z,17.57
2022-10-30T13:37:48.994Z,17.67
2022-10-30T13:40:51.043Z,17.59
2022-10-30T13:43:37.485Z,17.33
2022-10-30T13:46:26.756Z,16.95
2022-10-30T13:49:12.930Z,17.19
2022-10-30T13:51:48.104Z,17.25
2022-10-30T13:54:35.601Z,16.56
2022-10-30T13:57:25.328Z,17.13
2022-10-30T13:59:56.219Z,16.86
2022-10-30T14:02:39.582Z,17.07
2022-10-30T14:05:31.818Z,17.41
2022-10-30T14:08:06.713Z,17.10
2022-10-30T14:10:45.619Z,16.62
2022-10-30T14:13:47.532Z,16.96
2022-10-30T14:16:37.941Z,16.72
2022-10-30T14:19:16.410Z,16.89
2022-10-30T14:21:54.587Z,16.74
2022-10-30T14:27:04.299Z,16.99
2022-10-30T14:29:35.058Z,17.01
2022-10-30T14:32:15.188Z,16.62
2022-10-30T14:34:52.699Z,16.71
2022-10-30T14:37:31.438Z,17.38
2022-10-30T14:40:37.440Z,17.17
2022-10-30T14:43:34.883Z,16.83
2022-10-30T14:46:11.008Z,17.17
2022-10-30T14:48:49.091Z,17.22
2022-10-30T14:51:21.468Z,16.81
2022-10-30T14:54:22.210Z,16.81
2022-10-30T14:56:51.545Z,16.82
2022-10-30T14:59:19.672Z,16.48
2022-10-30T15:02:03.023Z,16.64
2022-10-30T15:04:37.508Z,17.05
2022-10-30T15:07:23.037Z,15.87
2022-10-30T15:10:03.139Z,15.66
2022-10-30T15:13:10.140Z,15.68
2022-10-30T15:15:38.651Z,16.06
2022-10-30T15:18:12.002Z,15.83
2022-10-30T15:20:40.515Z,16.08
2022-10-30T15:23:19.462Z,16.62
2022-10-30T15:25:50.829Z,16.18
2022-10-30T15:28:21.251Z,16.65
2022-10-30T15:31:28.667Z,16.49
2022-10-30T15:33:58.337Z,17.05
2022-10-30T15:36:36.047Z,16.19
2022-10-30T15:39:09.640Z,15.90
2022-10-30T15:41:46.797Z,15.96
2022-10-30T15:46:53.378Z,15.59
2022-10-30T15:49:29.488Z,15.40
2022-10-30T15:51:59.346Z,15.24
2022-10-30T15:54:28.368Z,14.90
2022-10-30T15:59:56.462Z,14.90
2022-10-30T16:02:27.232Z,15.42
2022-10-30T16:04:55.765Z,15.15
2022-10-30T16:07:26.049Z,16.10
2022-10-30T16:09:58.958Z,16.61
2022-10-30T16:12:32.803Z,16.97
2022-10-30T16:15:23.064Z,15.92
2022-10-30T16:18:19.618Z,15.85
2022-10-30T16:20:53.718Z,15.26
2022-10-30T16:23:22.662Z,15.55
2022-10-30T16:25:55.948Z,16.16
2022-10-30T16:28:27.740Z,15.45
2022-10-30T16:30:58.180Z,15.45
2022-10-30T16:33:28.263Z,15.30
2022-10-30T16:35:56.851Z,15.81
2022-10-30T16:38:28.253Z,16.43
2022-10-30T16:40:56.760Z,15.78
2022-10-30T16:43:29.942Z,16.41
2022-10-30T16:46:18.817Z,15.90
2022-10-30T16:48:51.887Z,15.80
2022-10-30T16:51:21.721Z,16.79
2022-10-30T16:53:51.459Z,16.12
2022-10-30T16:56:28.642Z,16.05
2022-10-30T16:59:05.468Z,15.60
2022-10-30T17:01:33.677Z,15.15
2022-10-30T17:04:02.251Z,15.49
2022-10-30T17:06:43.614Z,15.23
2022-10-30T17:09:28.939Z,16.41
2022-10-30T17:12:26.870Z,15.22
2022-10-30T17:15:07.133Z,15.12
2022-10-30T17:17:39.758Z,15.09
2022-10-30T17:20:29.992Z,15.85
2022-10-30T17:23:25.808Z,15.44
2022-10-30T17:25:55.397Z,15.50
2022-10-30T17:28:34.153Z,14.83
2022-10-30T17:31:24.388Z,14.94
2022-10-30T17:34:18.279Z,15.15
2022-10-30T17:36:49.681Z,15.12
2022-10-30T17:39:17.500Z,15.28
2022-10-30T17:41:46.543Z,14.99
2022-10-30T17:44:20.318Z,15.10
2022-10-30T17:46:48.272Z,15.22
2022-10-30T17:49:29.049Z,15.20
2022-10-30T17:51:57.530Z,15.27
2022-10-30T17:54:25.976Z,15.09
2022-10-30T17:56:53.981Z,15.67
2022-10-30T17:59:21.930Z,15.56
2022-10-30T18:01:50.445Z,15.70
2022-10-30T18:04:21.538Z,15.86
2022-10-30T18:06:49.989Z,15.38
2022-10-30T18:09:18.291Z,15.39
2022-10-30T18:11:46.181Z,16.30
2022-10-30T18:14:14.051Z,15.88
2022-10-30T18:16:42.300Z,15.62
2022-10-30T18:19:11.267Z,15.60
2022-10-30T18:21:39.171Z,15.44
2022-10-30T18:24:12.305Z,14.95
2022-10-30T18:26:41.066Z,15.25
2022-10-30T18:29:10.111Z,15.46
2022-10-30T18:31:39.497Z,15.70
2022-10-30T18:34:19.841Z,15.54
2022-10-30T18:36:49.220Z,15.36
2022-10-30T18:39:17.152Z,14.79
2022-10-30T18:41:46.447Z,14.60
2022-10-30T18:44:18.460Z,15.53
2022-10-30T18:46:46.412Z,15.54
2022-10-30T18:49:14.848Z,15.61
2022-10-30T18:51:42.780Z,14.80
2022-10-30T18:54:17.189Z,14.79
2022-10-30T18:56:45.351Z,15.35
2022-10-30T18:59:13.168Z,15.67
2022-10-30T19:01:41.312Z,15.13
2022-10-30T19:04:10.631Z,15.96
2022-10-30T19:06:39.159Z,15.55
2022-10-30T19:09:07.386Z,15.24
2022-10-30T19:11:38.283Z,14.89
2022-10-30T19:14:13.349Z,15.30
2022-10-30T19:16:41.872Z,14.72
2022-10-30T19:19:09.741Z,15.48
2022-10-30T19:21:37.662Z,14.83
2022-10-30T19:24:13.623Z,14.85
2022-10-30T19:26:41.518Z,14.63
2022-10-30T19:29:09.680Z,15.58
2022-10-30T19:31:37.528Z,15.03
2022-10-30T19:34:05.529Z,14.96
2022-10-30T19:36:36.623Z,14.91
2022-10-30T19:39:10.901Z,15.46
2022-10-30T19:41:40.268Z,14.51
2022-10-30T19:44:08.230Z,15.36
2022-10-30T19:46:37.151Z,15.24
2022-10-30T19:49:15.603Z,15.35
2022-10-30T19:51:43.470Z,15.62
2022-10-30T19:54:11.768Z,15.46
2022-10-30T19:56:39.660Z,15.83
2022-10-30T19:59:12.409Z,14.63
2022-10-30T20:01:41.891Z,14.25
2022-10-30T20:04:10.520Z,14.72
2022-10-30T20:06:38.556Z,14.67
2022-10-30T20:09:06.417Z,14.64
2022-10-30T20:11:34.647Z,14.72
2022-10-30T20:14:02.582Z,13.96
2022-10-30T20:16:30.458Z,14.25
2022-10-30T20:18:58.780Z,14.18
2022-10-30T20:21:27.920Z,14.59
2022-10-30T20:23:55.777Z,14.33
2022-10-30T20:26:28.907Z,14.33
2022-10-30T20:28:57.526Z,14.39
2022-10-30T20:31:26.259Z,14.44
2022-10-30T20:33:54.275Z,14.69
2022-10-30T20:36:22.194Z,14.79
2022-10-30T20:38:50.673Z,15.11
2022-10-30T20:41:21.981Z,14.90
2022-10-30T20:43:50.798Z,14.13
2022-10-30T20:46:19.301Z,14.24
2022-10-30T20:48:47.888Z,14.36
2022-10-30T20:51:16.255Z,14.68
2022-10-30T20:53:44.181Z,15.08
2022-10-30T20:56:12.214Z,14.68
2022-10-30T20:58:40.938Z,14.40
2022-10-30T21:01:08.947Z,14.56
2022-10-30T21:03:37.008Z,14.34
2022-10-30T21:06:09.920Z,14.98
2022-10-30T21:08:38.315Z,14.45
2022-10-30T21:11:07.173Z,14.63
2022-10-30T21:13:36.046Z,14.49
2022-10-30T21:16:08.210Z,14.43
2022-10-30T21:18:37.799Z,14.32
2022-10-30T21:21:07.950Z,14.06
2022-10-30T21:23:36.208Z,14.18
2022-10-30T21:26:08.412Z,14.53
2022-10-30T21:28:37.694Z,13.74
2022-10-30T21:31:07.944Z,14.47
2022-10-30T21:33:37.257Z,14.25
2022-10-30T21:36:11.932Z,14.68
2022-10-30T21:38:47.657Z,14.41
2022-10-30T21:41:21.227Z,15.11
2022-10-30T21:43:54.468Z,14.37
2022-10-30T21:46:24.012Z,14.96
2022-10-30T21:48:52.657Z,14.42
2022-10-30T21:51:25.761Z,14.54
2022-10-30T21:53:55.269Z,14.46
2022-10-30T21:56:25.891Z,14.78
2022-10-30T21:58:59.547Z,14.70
2022-10-30T22:01:30.128Z,15.45
2022-10-30T22:03:59.937Z,14.95
2022-10-30T22:06:28.018Z,13.95
2022-10-30T22:08:57.058Z,14.43
2022-10-30T22:11:27.789Z,14.38
2022-10-30T22:13:57.851Z,14.14
2022-10-30T22:16:28.770Z,14.54
2022-10-30T22:18:57.808Z,14.48
2022-10-30T22:21:25.939Z,15.19
2022-10-30T22:23:54.238Z,15.26
2022-10-30T22:26:23.530Z,14.45
2022-10-30T22:28:56.108Z,15.52
2022-10-30T22:31:25.377Z,13.64
2022-10-30T22:33:53.701Z,14.25
2022-10-30T22:36:22.718Z,14.11
2022-10-30T22:39:07.737Z,14.39
2022-10-30T22:41:38.123Z,14.51
2022-10-30T22:44:09.002Z,14.75
2022-10-30T22:46:37.440Z,14.52
2022-10-30T22:49:06.009Z,14.14
2022-10-30T22:51:35.642Z,14.22
2022-10-30T22:54:05.695Z,14.04
2022-10-30T22:56:35.587Z,14.31
2022-10-30T22:59:06.187Z,14.73
2022-10-30T23:01:35.559Z,14.84
2022-10-30T23:04:05.038Z,14.33
2022-10-30T23:06:34.360Z,14.06
2022-10-30T23:09:05.141Z,14.20
2022-10-30T23:11:33.497Z,14.15
2022-10-30T23:14:01.649Z,15.26
2022-10-30T23:16:29.917Z,14.68
2022-10-30T23:18:59.809Z,14.39
2022-10-30T23:21:29.901Z,14.28
2022-10-30T23:23:58.959Z,13.49
2022-10-30T23:26:29.629Z,13.62
2022-10-30T23:28:58.337Z,13.40
2022-10-30T23:31:30.967Z,14.09
2022-10-30T23:34:00.349Z,13.61
2022-10-30T23:36:28.708Z,13.53
2022-10-30T23:38:58.555Z,14.55
2022-10-30T23:41:28.777Z,13.86
2022-10-30T23:43:58.835Z,14.27
2022-10-30T23:46:26.899Z,14.16
2022-10-30T23:48:55.189Z,13.87
2022-10-30T23:51:23.778Z,13.51
2022-10-30T23:53:51.811Z,14.00
2022-10-30T23:56:20.164Z,13.57
2022-10-30T23:58:50.158Z,13.73
